createdAt,value
2018-04-14T00:01:53.119Z,36.33
2018-04-14T00:04:19.305Z,37.17
2018-04-14T00:06:45.509Z,36.53
2018-04-14T00:09:11.693Z,37.40
2018-04-14T00:11:39.163Z,34.80
2018-04-14T00:14:05.329Z,37.87
2018-04-14T00:16:31.514Z,38.97
2018-04-14T00:18:57.686Z,38.63
2018-04-14T00:21:23.862Z,35.57
2018-04-14T00:23:50.115Z,49.40
2018-04-14T00:26:16.286Z,49.80
2018-04-14T00:28:42.474Z,45.70
2018-04-14T00:31:08.658Z,42.40
2018-04-14T00:33:34.853Z,42.37
2018-04-14T00:36:02.138Z,41.37
2018-04-14T00:38:28.343Z,40.53
2018-04-14T00:40:54.518Z,38.77
2018-04-14T00:43:20.694Z,41.77
2018-04-14T00:45:46.889Z,39.20
2018-04-14T00:48:13.069Z,39.10
2018-04-14T00:50:39.315Z,39.37
2018-04-14T00:53:17.766Z,40.27
2018-04-14T00:55:45.098Z,39.97
2018-04-14T00:58:12.394Z,41.43
2018-04-14T01:00:38.562Z,40.33
2018-04-14T01:03:05.884Z,42.80
2018-04-14T01:05:32.091Z,51.13
2018-04-14T01:07:58.304Z,85.57
2018-04-14T01:10:24.486Z,54.93
2018-04-14T01:12:50.700Z,72.43
2018-04-14T01:15:16.871Z,86.87
2018-04-14T01:17:43.051Z,81.70
2018-04-14T01:20:09.258Z,66.23
2018-04-14T01:22:35.452Z,52.03
2018-04-14T01:25:01.712Z,42.40
2018-04-14T01:27:28.984Z,31.47
2018-04-14T01:29:55.148Z,30.60
2018-04-14T01:32:21.383Z,30.13
2018-04-14T01:34:49.318Z,28.87
2018-04-14T01:37:15.495Z,33.67
2018-04-14T01:39:41.671Z,27.60
2018-04-14T01:42:07.866Z,36.17
2018-04-14T01:44:35.158Z,41.87
2018-04-14T01:47:01.329Z,93.90
2018-04-14T01:49:28.595Z,67.30
2018-04-14T01:51:54.787Z,57.23
2018-04-14T01:54:22.688Z,56.47
2018-04-14T01:56:48.850Z,47.47
2018-04-14T01:59:15.042Z,40.20
2018-04-14T02:01:41.252Z,32.70
2018-04-14T02:04:07.412Z,34.13
2018-04-14T02:06:33.697Z,34.00
2018-04-14T02:09:00.982Z,30.57
2018-04-14T02:11:27.196Z,29.37
2018-04-14T02:13:53.370Z,32.27
2018-04-14T02:16:19.575Z,36.77
2018-04-14T02:18:47.465Z,36.03
2018-04-14T02:21:13.710Z,34.70
2018-04-14T02:23:39.891Z,38.40
2018-04-14T02:26:06.056Z,35.00
2018-04-14T02:28:32.234Z,35.30
2018-04-14T02:30:58.438Z,36.53
2018-04-14T02:33:24.606Z,38.57
2018-04-14T02:35:51.923Z,37.30
2018-04-14T02:38:18.114Z,35.77
2018-04-14T02:40:44.290Z,35.33
2018-04-14T02:43:10.494Z,35.70
2018-04-14T02:45:36.674Z,38.10
2018-04-14T02:48:02.882Z,40.13
2018-04-14T02:50:29.085Z,41.97
2018-04-14T02:52:55.276Z,41.53
2018-04-14T02:55:21.430Z,39.17
2018-04-14T02:57:47.618Z,38.80
2018-04-14T03:00:13.786Z,38.90
2018-04-14T03:02:40.021Z,44.70
2018-04-14T03:05:06.232Z,38.03
2018-04-14T03:07:32.397Z,38.37
2018-04-14T03:09:58.619Z,39.40
2018-04-14T03:12:25.889Z,37.60
2018-04-14T03:14:52.075Z,34.10
2018-04-14T03:17:19.347Z,38.43
2018-04-14T03:19:45.554Z,35.27
2018-04-14T03:22:11.718Z,31.50
2018-04-14T03:24:37.898Z,29.20
2018-04-14T03:27:04.070Z,27.73
2018-04-14T03:29:30.280Z,29.40
2018-04-14T03:31:57.546Z,29.87
2018-04-14T03:34:23.733Z,31.67
2018-04-14T03:36:51.033Z,29.50
2018-04-14T03:39:17.239Z,29.93
2018-04-14T03:41:43.402Z,32.33
2018-04-14T03:44:10.699Z,30.63
2018-04-14T03:46:37.523Z,29.03
2018-04-14T03:49:04.856Z,30.77
2018-04-14T03:51:31.061Z,31.87
2018-04-14T03:53:57.232Z,33.63
2018-04-14T03:56:24.544Z,29.80
2018-04-14T03:58:50.719Z,29.20
2018-04-14T04:01:16.915Z,30.03
2018-04-14T04:03:43.102Z,30.43
2018-04-14T04:06:10.385Z,32.10
2018-04-14T04:08:36.569Z,30.73
2018-04-14T04:11:02.770Z,30.00
2018-04-14T04:13:30.426Z,30.37
2018-04-14T04:15:56.636Z,30.07
2018-04-14T04:18:35.191Z,29.03
2018-04-14T04:21:15.023Z,26.40
2018-04-14T04:23:53.367Z,28.47
2018-04-14T04:26:19.558Z,26.80
2018-04-14T04:28:45.735Z,29.50
2018-04-14T04:31:11.936Z,29.03
2018-04-14T04:33:38.086Z,27.17
2018-04-14T04:36:04.288Z,35.10
2018-04-14T04:38:30.473Z,31.47
2018-04-14T04:40:56.650Z,31.73
2018-04-14T04:43:23.970Z,36.30
2018-04-14T04:45:50.159Z,33.63
2018-04-14T04:48:16.378Z,32.57
2018-04-14T04:50:42.538Z,28.73
2018-04-14T04:53:08.734Z,29.33
2018-04-14T04:55:36.020Z,26.27
2018-04-14T04:58:02.267Z,25.57
2018-04-14T05:00:28.438Z,24.30
2018-04-14T05:02:54.628Z,24.17
2018-04-14T05:05:22.529Z,28.50
2018-04-14T05:07:48.797Z,29.87
2018-04-14T05:10:14.980Z,28.40
2018-04-14T05:12:41.168Z,27.77
2018-04-14T05:15:07.328Z,28.93
2018-04-14T05:17:35.271Z,26.10
2018-04-14T05:20:02.586Z,26.50
2018-04-14T05:22:28.773Z,22.93
2018-04-14T05:24:56.815Z,22.73
2018-04-14T05:27:23.049Z,25.70
2018-04-14T05:29:49.225Z,23.93
2018-04-14T05:32:16.514Z,27.07
2018-04-14T05:34:42.750Z,21.63
2018-04-14T05:37:08.913Z,23.17
2018-04-14T05:39:35.349Z,22.93
2018-04-14T05:42:03.074Z,22.60
2018-04-14T05:44:29.255Z,22.20
2018-04-14T05:46:57.159Z,23.93
2018-04-14T05:49:23.343Z,24.80
2018-04-14T05:51:49.680Z,25.50
2018-04-14T05:54:17.581Z,27.97
2018-04-14T05:56:45.486Z,29.77
2018-04-14T05:59:13.460Z,25.10
2018-04-14T06:01:41.544Z,25.33
2018-04-14T06:04:07.798Z,24.47
2018-04-14T06:06:33.991Z,25.90
2018-04-14T06:09:01.432Z,24.87
2018-04-14T06:11:28.827Z,24.97
2018-04-14T06:13:55.961Z,24.80
2018-04-14T06:16:22.212Z,27.13
2018-04-14T06:18:51.109Z,27.03
2018-04-14T06:21:18.428Z,29.80
2018-04-14T06:23:44.625Z,31.10
2018-04-14T06:26:12.051Z,27.80
2018-04-14T06:28:38.234Z,26.70
2018-04-14T06:31:04.436Z,26.43
2018-04-14T06:33:30.672Z,29.83
2018-04-14T06:35:56.878Z,31.43
2018-04-14T06:38:23.073Z,31.40
2018-04-14T06:40:49.285Z,30.33
2018-04-14T06:43:15.518Z,33.47
2018-04-14T06:45:41.780Z,32.87
2018-04-14T06:48:08.111Z,33.07
2018-04-14T06:50:34.342Z,32.90
2018-04-14T06:53:00.512Z,32.80
2018-04-14T06:55:26.809Z,30.80
2018-04-14T06:57:53.047Z,33.17
2018-04-14T07:00:19.214Z,31.17
2018-04-14T07:02:45.885Z,31.10
2018-04-14T07:05:12.147Z,30.40
2018-04-14T07:07:39.427Z,30.80
2018-04-14T07:10:05.714Z,31.80
2018-04-14T07:12:31.897Z,29.23
2018-04-14T07:14:59.929Z,26.73
2018-04-14T07:17:26.386Z,26.90
2018-04-14T07:19:52.722Z,28.40
2018-04-14T07:22:19.046Z,32.20
2018-04-14T07:24:45.364Z,33.33
2018-04-14T07:27:11.843Z,33.50
2018-04-14T07:29:38.233Z,31.47
2018-04-14T07:32:04.610Z,33.27
2018-04-14T07:34:30.894Z,30.87
2018-04-14T07:36:57.148Z,31.17
2018-04-14T07:39:23.360Z,31.60
2018-04-14T07:41:49.579Z,27.90
2018-04-14T07:44:15.767Z,29.97
2018-04-14T07:46:42.070Z,27.67
2018-04-14T07:49:08.326Z,30.63
2018-04-14T07:51:34.556Z,26.63
2018-04-14T07:54:00.963Z,25.53
2018-04-14T07:56:27.214Z,25.97
2018-04-14T07:58:55.343Z,25.37
2018-04-14T08:01:22.652Z,24.57
2018-04-14T08:03:48.893Z,23.83
2018-04-14T08:06:15.247Z,22.73
2018-04-14T08:08:41.497Z,21.87
2018-04-14T08:11:07.715Z,20.93
2018-04-14T08:13:34.563Z,18.27
2018-04-14T08:16:00.853Z,19.37
2018-04-14T08:18:27.134Z,19.57
2018-04-14T08:20:53.409Z,19.00
2018-04-14T08:23:19.638Z,19.60
2018-04-14T08:25:45.848Z,16.93
2018-04-14T08:28:12.135Z,18.93
2018-04-14T08:30:38.343Z,18.13
2018-04-14T08:33:06.658Z,18.17
2018-04-14T08:35:35.026Z,18.37
2018-04-14T08:38:02.231Z,17.07
2018-04-14T08:40:28.485Z,16.37
2018-04-14T08:42:54.792Z,15.70
2018-04-14T08:45:22.094Z,15.07
2018-04-14T08:47:48.342Z,14.77
2018-04-14T08:50:15.724Z,16.60
2018-04-14T08:52:41.906Z,15.67
2018-04-14T08:55:08.206Z,16.13
2018-04-14T08:57:35.514Z,14.67
2018-04-14T09:00:01.734Z,14.87
2018-04-14T09:02:28.020Z,12.97
2018-04-14T09:04:54.218Z,14.10
2018-04-14T09:07:20.480Z,14.17
2018-04-14T09:09:46.699Z,13.27
2018-04-14T09:12:12.915Z,13.40
2018-04-14T09:14:39.103Z,13.15
2018-04-14T09:17:05.306Z,13.53
2018-04-14T09:19:31.644Z,11.40
2018-04-14T09:21:57.948Z,11.02
2018-04-14T09:24:24.236Z,10.55
2018-04-14T09:26:50.433Z,11.50
2018-04-14T09:29:16.632Z,9.73
2018-04-14T09:31:45.163Z,9.82
2018-04-14T09:34:13.496Z,8.30
2018-04-14T09:36:40.438Z,8.73
2018-04-14T09:39:07.394Z,8.32
2018-04-14T09:41:34.079Z,18.58
2018-04-14T09:44:01.970Z,9.20
2018-04-14T09:46:33.704Z,8.52
2018-04-14T09:49:03.273Z,10.85
2018-04-14T09:51:30.197Z,13.38
2018-04-14T09:53:57.258Z,13.15
2018-04-14T09:56:23.963Z,13.00
2018-04-14T09:59:00.634Z,10.75
2018-04-14T10:01:28.478Z,8.13
2018-04-14T10:03:58.564Z,8.00
2018-04-14T10:06:26.233Z,7.78
2018-04-14T10:08:52.448Z,11.65
2018-04-14T10:11:18.681Z,7.60
2018-04-14T10:13:44.875Z,8.50
2018-04-14T10:16:11.152Z,7.85
2018-04-14T10:18:37.303Z,32.58
2018-04-14T10:21:03.582Z,9.20
2018-04-14T10:23:29.816Z,8.02
2018-04-14T10:25:56.046Z,8.38
2018-04-14T10:28:22.374Z,7.95
2018-04-14T10:30:48.729Z,7.05
2018-04-14T10:33:15.032Z,7.25
2018-04-14T10:35:41.272Z,8.20
2018-04-14T10:38:07.658Z,6.12
2018-04-14T10:40:33.982Z,7.57
2018-04-14T10:43:00.345Z,7.22
2018-04-14T10:45:26.786Z,6.00
2018-04-14T10:47:53.075Z,6.68
2018-04-14T10:50:19.277Z,5.95
2018-04-14T10:52:45.495Z,6.05
2018-04-14T10:55:11.697Z,5.53
2018-04-14T10:57:37.906Z,5.70
2018-04-14T11:00:04.094Z,5.50
2018-04-14T11:02:30.411Z,4.75
2018-04-14T11:04:57.627Z,5.07
2018-04-14T11:07:23.821Z,5.05
2018-04-14T11:09:50.110Z,5.55
2018-04-14T11:12:16.588Z,5.32
2018-04-14T11:14:42.784Z,5.07
2018-04-14T11:17:08.987Z,4.95
2018-04-14T11:19:35.203Z,4.60
2018-04-14T11:22:01.418Z,5.05
2018-04-14T11:24:27.615Z,4.40
2018-04-14T11:26:53.810Z,4.68
2018-04-14T11:29:20.014Z,3.95
2018-04-14T11:31:46.931Z,4.32
2018-04-14T11:34:13.898Z,4.75
2018-04-14T11:36:40.101Z,4.18
2018-04-14T11:39:06.290Z,6.40
2018-04-14T11:41:33.198Z,11.02
2018-04-14T11:43:59.427Z,13.98
2018-04-14T11:46:25.614Z,4.07
2018-04-14T11:48:51.819Z,5.40
2018-04-14T11:51:17.982Z,4.82
2018-04-14T11:53:44.913Z,3.67
2018-04-14T11:56:11.821Z,2.53
2018-04-14T11:58:38.038Z,2.72
2018-04-14T12:01:05.019Z,3.15
2018-04-14T12:03:31.210Z,2.35
2018-04-14T12:05:57.407Z,2.17
2018-04-14T12:08:23.998Z,1.87
2018-04-14T12:10:50.194Z,2.35
2018-04-14T12:13:16.382Z,1.08
2018-04-14T12:15:42.582Z,1.15
2018-04-14T12:18:08.755Z,2.28
2018-04-14T12:20:34.943Z,1.65
2018-04-14T12:23:01.135Z,2.03
2018-04-14T12:25:27.415Z,1.20
2018-04-14T12:27:54.343Z,1.23
2018-04-14T12:30:20.524Z,1.65
2018-04-14T12:32:46.706Z,2.47
2018-04-14T12:35:12.906Z,2.28
2018-04-14T12:37:39.091Z,1.83
2018-04-14T12:40:05.375Z,2.17
2018-04-14T12:42:31.606Z,1.90
2018-04-14T12:44:57.842Z,1.50
2018-04-14T12:47:24.759Z,1.00
2018-04-14T12:49:51.059Z,0.90
2018-04-14T12:52:17.282Z,1.30
2018-04-14T12:54:44.274Z,1.15
2018-04-14T12:57:10.496Z,0.90
2018-04-14T12:59:36.695Z,0.75
2018-04-14T13:02:02.894Z,0.40
2018-04-14T13:04:29.075Z,0.73
2018-04-14T13:06:55.252Z,1.00
2018-04-14T13:09:21.430Z,0.88
2018-04-14T13:11:47.622Z,0.60
2018-04-14T13:14:14.545Z,0.80
2018-04-14T13:16:41.493Z,0.70
2018-04-14T13:19:08.499Z,0.80
2018-04-14T13:21:34.644Z,0.52
2018-04-14T13:24:01.575Z,0.75
2018-04-14T13:26:27.792Z,0.90
2018-04-14T13:28:53.978Z,0.98
2018-04-14T13:31:20.319Z,0.82
2018-04-14T13:33:46.499Z,0.75
2018-04-14T13:36:12.694Z,1.05
2018-04-14T13:38:38.887Z,1.20
2018-04-14T13:41:05.139Z,1.33
2018-04-14T13:43:31.335Z,1.30
2018-04-14T13:45:57.522Z,0.73
2018-04-14T13:48:23.718Z,0.93
2018-04-14T13:50:49.876Z,0.75
2018-04-14T13:53:16.063Z,0.62
2018-04-14T13:55:42.604Z,0.77
2018-04-14T13:58:08.815Z,0.80
2018-04-14T14:00:34.990Z,0.70
2018-04-14T14:03:01.184Z,1.35
2018-04-14T14:05:28.101Z,0.75
2018-04-14T14:07:54.300Z,0.73
2018-04-14T14:10:20.486Z,0.50
2018-04-14T14:12:46.677Z,0.40
2018-04-14T14:15:12.846Z,0.50
2018-04-14T14:17:39.078Z,0.50
2018-04-14T14:20:06.002Z,0.80
2018-04-14T14:22:32.493Z,0.90
2018-04-14T14:24:58.747Z,0.60
2018-04-14T14:27:25.273Z,0.80
2018-04-14T14:29:52.488Z,0.57
2018-04-14T14:32:18.763Z,0.50
2018-04-14T14:34:45.043Z,1.10
2018-04-14T14:37:11.309Z,0.90
2018-04-14T14:39:37.506Z,0.77
2018-04-14T14:42:03.923Z,1.05
2018-04-14T14:44:30.153Z,0.93
2018-04-14T14:46:56.494Z,1.00
2018-04-14T14:49:22.691Z,0.93
2018-04-14T14:51:48.883Z,0.90
2018-04-14T14:54:15.074Z,0.98
2018-04-14T14:56:41.268Z,0.40
2018-04-14T14:59:08.445Z,0.60
2018-04-14T15:01:34.599Z,1.20
2018-04-14T15:04:00.789Z,0.98
2018-04-14T15:06:26.992Z,1.00
2018-04-14T15:08:53.226Z,0.70
2018-04-14T15:11:19.390Z,1.10
2018-04-14T15:13:45.806Z,0.62
2018-04-14T15:16:12.015Z,0.60
2018-04-14T15:18:38.294Z,0.70
2018-04-14T15:21:05.778Z,1.12
2018-04-14T15:23:32.109Z,1.10
2018-04-14T15:25:58.412Z,0.90
2018-04-14T15:28:24.685Z,0.60
2018-04-14T15:30:52.014Z,0.80
2018-04-14T15:33:18.206Z,0.70
2018-04-14T15:35:44.499Z,0.50
2018-04-14T15:38:10.682Z,0.47
2018-04-14T15:40:38.067Z,0.55
2018-04-14T15:43:04.305Z,0.65
2018-04-14T15:45:31.296Z,0.98
2018-04-14T15:47:57.477Z,0.77
2018-04-14T15:50:23.698Z,1.10
2018-04-14T15:52:50.631Z,0.93
2018-04-14T15:55:16.838Z,0.65
2018-04-14T15:57:43.775Z,0.65
2018-04-14T16:00:09.994Z,0.82
2018-04-14T16:02:36.186Z,0.73
2018-04-14T16:05:03.099Z,0.80
2018-04-14T16:07:29.360Z,0.80
2018-04-14T16:09:55.590Z,1.02
2018-04-14T16:12:21.799Z,1.48
2018-04-14T16:14:48.658Z,0.60
2018-04-14T16:17:15.170Z,0.80
2018-04-14T16:19:41.362Z,0.77
2018-04-14T16:22:07.596Z,0.70
2018-04-14T16:24:33.848Z,0.50
2018-04-14T16:27:00.063Z,0.98
2018-04-14T16:29:27.476Z,0.62
2018-04-14T16:31:53.725Z,0.32
2018-04-14T16:34:20.074Z,1.62
2018-04-14T16:36:46.334Z,1.20
2018-04-14T16:39:12.593Z,4.53
2018-04-14T16:41:38.926Z,5.65
2018-04-14T16:44:05.363Z,10.50
2018-04-14T16:46:31.576Z,2.05
2018-04-14T16:48:57.799Z,10.30
2018-04-14T16:51:24.055Z,14.07
2018-04-14T16:53:50.366Z,14.07
2018-04-14T16:56:17.683Z,11.35
2018-04-14T16:58:43.994Z,10.88
2018-04-14T17:01:10.580Z,9.43
2018-04-14T17:03:36.807Z,24.60
2018-04-14T17:06:03.894Z,9.93
2018-04-14T17:08:30.197Z,16.08
2018-04-14T17:10:57.634Z,7.70
2018-04-14T17:13:23.938Z,12.63
2018-04-14T17:15:50.161Z,8.60
2018-04-14T17:18:16.352Z,21.55
2018-04-14T17:20:42.547Z,17.98
2018-04-14T17:23:08.778Z,18.62
2018-04-14T17:25:34.978Z,31.52
2018-04-14T17:28:01.307Z,40.55
2018-04-14T17:30:27.529Z,50.50
2018-04-14T17:32:54.786Z,36.20
2018-04-14T17:35:20.992Z,25.42
2018-04-14T17:37:47.190Z,16.33
2018-04-14T17:40:13.374Z,24.17
2018-04-14T17:42:39.554Z,16.80
2018-04-14T17:45:06.855Z,7.68
2018-04-14T17:47:33.159Z,5.10
2018-04-14T17:50:00.203Z,2.80
2018-04-14T17:52:26.427Z,3.17
2018-04-14T17:54:52.618Z,3.65
2018-04-14T17:57:18.839Z,7.70
2018-04-14T17:59:45.153Z,20.17
2018-04-14T18:02:11.373Z,20.15
2018-04-14T18:04:37.569Z,13.43
2018-04-14T18:07:03.780Z,13.75
2018-04-14T18:09:30.003Z,22.87
2018-04-14T18:11:56.191Z,11.30
2018-04-14T18:14:22.382Z,7.30
2018-04-14T18:16:49.209Z,3.95
2018-04-14T18:19:15.402Z,5.28
2018-04-14T18:21:41.615Z,3.28
2018-04-14T18:24:08.979Z,2.20
2018-04-14T18:26:35.162Z,1.75
2018-04-14T18:29:01.451Z,2.00
2018-04-14T18:31:27.832Z,2.00
2018-04-14T18:33:54.325Z,2.65
2018-04-14T18:36:21.683Z,1.90
2018-04-14T18:38:48.828Z,1.85
2018-04-14T18:41:15.097Z,1.60
2018-04-14T18:43:41.479Z,1.87
2018-04-14T18:46:08.241Z,2.22
2018-04-14T18:48:34.470Z,2.25
2018-04-14T18:51:00.769Z,2.17
2018-04-14T18:53:27.227Z,2.30
2018-04-14T18:55:53.435Z,2.33
2018-04-14T18:58:21.362Z,3.20
2018-04-14T19:00:47.554Z,3.72
2018-04-14T19:03:13.738Z,3.53
2018-04-14T19:05:40.011Z,3.83
2018-04-14T19:08:06.234Z,3.75
2018-04-14T19:10:32.585Z,3.90
2018-04-14T19:12:58.814Z,3.70
2018-04-14T19:15:25.204Z,12.10
2018-04-14T19:17:51.430Z,6.25
2018-04-14T19:20:17.687Z,3.60
2018-04-14T19:22:44.032Z,3.45
2018-04-14T19:25:12.001Z,2.65
2018-04-14T19:27:38.698Z,3.78
2018-04-14T19:30:05.026Z,2.92
2018-04-14T19:32:32.644Z,3.70
2018-04-14T19:34:59.004Z,3.90
2018-04-14T19:37:25.219Z,5.32
2018-04-14T19:39:51.423Z,9.95
2018-04-14T19:42:18.803Z,12.13
2018-04-14T19:44:45.008Z,9.60
2018-04-14T19:47:11.351Z,8.03
2018-04-14T19:49:37.517Z,5.53
2018-04-14T19:52:03.907Z,4.12
2018-04-14T19:54:30.251Z,4.27
2018-04-14T19:56:56.754Z,2.20
2018-04-14T19:59:26.034Z,2.60
2018-04-14T20:01:52.754Z,1.93
2018-04-14T20:04:19.109Z,2.07
2018-04-14T20:06:45.832Z,1.40
2018-04-14T20:09:13.341Z,1.67
2018-04-14T20:11:41.608Z,2.57
2018-04-14T20:14:07.971Z,4.27
2018-04-14T20:16:34.298Z,6.90
2018-04-14T20:19:00.492Z,2.80
2018-04-14T20:21:26.710Z,2.30
2018-04-14T20:23:53.047Z,2.77
2018-04-14T20:26:19.635Z,2.83
2018-04-14T20:28:49.260Z,2.67
2018-04-14T20:31:16.374Z,2.90
2018-04-14T20:33:43.358Z,3.17
2018-04-14T20:36:10.109Z,2.60
2018-04-14T20:38:37.588Z,2.80
2018-04-14T20:41:04.881Z,4.67
2018-04-14T20:43:33.860Z,5.13
2018-04-14T20:46:00.269Z,3.47
2018-04-14T20:48:26.986Z,3.27
2018-04-14T20:50:53.160Z,5.20
2018-04-14T20:53:19.386Z,5.70
2018-04-14T20:55:46.522Z,6.43
2018-04-14T20:58:12.695Z,5.63
2018-04-14T21:00:38.934Z,6.57
2018-04-14T21:03:06.320Z,5.60
2018-04-14T21:05:33.848Z,5.37
2018-04-14T21:08:00.711Z,6.00
2018-04-14T21:10:27.088Z,7.13
2018-04-14T21:12:53.680Z,6.43
2018-04-14T21:15:20.135Z,6.20
2018-04-14T21:17:47.811Z,7.60
2018-04-14T21:20:15.522Z,7.90
2018-04-14T21:22:43.578Z,6.40
2018-04-14T21:25:10.701Z,6.60
2018-04-14T21:27:37.841Z,5.50
2018-04-14T21:30:05.057Z,5.17
2018-04-14T21:32:32.779Z,5.40
2018-04-14T21:34:59.828Z,4.67
2018-04-14T21:37:26.695Z,5.80
2018-04-14T21:39:56.995Z,5.83
2018-04-14T21:42:24.821Z,4.97
2018-04-14T21:44:51.702Z,4.83
2018-04-14T21:47:30.942Z,4.03
2018-04-14T21:49:58.540Z,3.07
2018-04-14T21:52:24.975Z,3.23
2018-04-14T21:54:51.296Z,2.87
2018-04-14T21:57:18.654Z,4.57
2018-04-14T21:59:44.846Z,4.33
2018-04-14T22:02:11.016Z,4.10
2018-04-14T22:04:37.306Z,4.20
2018-04-14T22:07:04.970Z,4.50
2018-04-14T22:09:31.214Z,5.73
2018-04-14T22:11:57.582Z,7.03
2018-04-14T22:14:32.288Z,6.00
2018-04-14T22:16:58.818Z,4.27
2018-04-14T22:19:25.386Z,3.17
2018-04-14T22:21:51.601Z,3.27
2018-04-14T22:24:17.842Z,4.60
2018-04-14T22:26:44.015Z,4.97
2018-04-14T22:29:11.195Z,6.80
2018-04-14T22:31:37.607Z,5.40
2018-04-14T22:34:04.192Z,6.07
2018-04-14T22:36:30.547Z,4.67
2018-04-14T22:38:57.048Z,5.00
2018-04-14T22:41:23.297Z,4.00
2018-04-14T22:43:49.558Z,3.93
2018-04-14T22:46:15.763Z,3.20
2018-04-14T22:48:42.201Z,3.70
2018-04-14T22:51:09.389Z,4.17
2018-04-14T22:53:37.382Z,4.93
2018-04-14T22:56:03.676Z,5.30
2018-04-14T22:58:30.018Z,4.53
2018-04-14T23:00:56.398Z,5.07
2018-04-14T23:03:23.941Z,4.60
2018-04-14T23:05:50.190Z,4.67
2018-04-14T23:08:16.390Z,4.37
2018-04-14T23:10:42.556Z,5.37
2018-04-14T23:13:08.754Z,5.00
2018-04-14T23:15:34.922Z,5.07
2018-04-14T23:18:01.102Z,5.53
2018-04-14T23:20:27.278Z,4.93
2018-04-14T23:22:53.434Z,6.30
2018-04-14T23:25:20.741Z,5.83
2018-04-14T23:27:46.934Z,6.63
2018-04-14T23:30:13.122Z,24.07
2018-04-14T23:32:39.310Z,28.97
2018-04-14T23:35:07.007Z,28.17
2018-04-14T23:37:33.155Z,20.50
2018-04-14T23:39:59.350Z,24.43
2018-04-14T23:42:25.534Z,23.37
2018-04-14T23:44:51.751Z,18.63
2018-04-14T23:47:17.922Z,13.47
2018-04-14T23:49:45.237Z,10.07
2018-04-14T23:52:11.419Z,9.63
2018-04-14T23:54:38.190Z,9.83
2018-04-14T23:57:04.404Z,7.30
2018-04-14T23:59:30.564Z,6.50
